Four Corners Regional Airport
KFMN : rendu visible

Aérodrome :











RETROUVEZ-NOUS SUR...

 
LOGIN :

S'inscrire | Disclaimer

   EN    FR    IT 

 









Légende :    VFR   VFR Marginal   IFR   IFR Intensif   IFR Très Intensif
Visi : 
Plafond : 
>= 8 km
>= 3000ft
5 à 8 km
1000 à 3000 ft
1500m à 5 km
500 à 1000 ft
800 à 1500m
200 à 500 ft
< 800m
< 200 ft
Symboles :   Orages  Brouillard  Fortes neiges  Fortes précipitations  Vent > 20 kt







- Altitude de l'aérodrome : 5506 ft


KFMN - Four Corners Regional

DERNIER METAR :
  • 201353Z 12007KT 10SM CLR 08/M05 A3004 RMK AO2 SLP135 T00831050

METARs EXPIRÉS :
  • 201253Z 10006KT 10SM CLR 06/M06 A3004 RMK AO2 SLP133 T00611061
  • 201153Z 09009KT 10SM CLR 06/M06 A3002 RMK AO2 SLP127 T00561061 10094 20039 58008

TAF KFMN
Valide du 20 à 12h jusqu'au 21 à 12h UTC


201122Z 2012/2112 08009KT P6SM FEW160
FM202000 28009KT P6SM BKN160
FM210300 VRB06KT P6SM SCT120 BKN160
FM210900 08007KT P6SM SCT100 BKN150
FIR KZDV / Amérique du Nord



MET'MAP, la Météo Aéronautique d'un coup d'oeil ! - Copyright ORBIFLY Décembre 2007 - Disclaimer

ORBIFLY MET'MAP TEAM :

Programmation & Développement : Alexandra Zaïnal
Conception & Développement : Baudouin d'Aumeries
Co-Programmation & Développement : Marc-Olivier Méhu
Soutien technique & logistique : Manuel Goepfert

Contact : metmap@orbifly.com




SOURCES & CREDITS :

   NOAA       Earth
Advisory